Terminal Aerodrome Forecast
Issued by NWS

Home | Current Version | Previous Version | Text Only | Print | Product List | Glossary On
Versions: 1 2 3 4 5 6 7 8 9 10 11 12 13 14 15 16 17 18 19 20 21 22 23 24 25 26 27 28 29
000
FTUS41 KRLX 231800 AAA
TAFCKB
TAF AMD
KCKB 231827Z 2318/2418 00000KT P6SM VCTS BKN025CB
      TEMPO 2318/2320 BKN025CB
     FM240200 VRB03KT P6SM BKN035
     FM240400 VRB03KT 5SM BR BKN040
     FM240700 VRB03KT 4SM BR BKN025
     FM240800 VRB03KT 3SM BR BKN003
     FM241300 11004KT 6SM BR SCT008
     FM241400 11004KT P6SM SCT015=

USA.gov is the U.S. government's official web portal to all federal, state and local government web resources and services.